Jack Mc Namara Field Airport
KCEC : now visible

Airfield :











YOU CAN JOIN US ON...

 
LOGIN :

Register | Disclaimer

   EN    FR    IT 

 









Legend :    VFR   Marginal VFR   IFR   Intensive IFR   Very Intensive IFR
Visi :
Ceiling :
>= 8 km
>= 3000ft
5 to 8 km
1000 to 3000 ft
1500m to 5 km
500 to 1000 ft
800 to 1500m
200 to 500 ft
< 800m
< 200 ft
Symbols :   Thunderstorms  Fog  Heavy snow  Heavy precipitations  Wind > 20 kt






- Airport Elevation : 61 ft
- IATA code : CEC


KCEC - Jack Mc Namara Field

CURRENT METAR :
  • 281256Z AUTO 19015KT 6SM BR FEW008 BKN046 OVC055 10/10 A3019 RMK AO2 PK WND 19027/1227 SLP222 T01000100

EXPIRED METARs :
  • 281156Z AUTO 19019KT 10SM BKN009 BKN014 OVC025 10/10 A3018 RMK AO2 PK WND 20031/1106 RAE07 SLP221 P0000 60033 70063 T01000100 10100 20100 50004
  • 281128Z AUTO 19017KT 9SM SCT009 BKN014 OVC027 10/10 A3019 RMK AO2 PK WND 20031/1106 RAE07 P0000 T01000100
  • 281056Z AUTO 20019G30KT 7SM -RA BKN006 BKN014 OVC024 10/10 A3018 RMK AO2 PK WND 17032/1037 SLP221 P0009 T01000100

TAF KCEC
Valid from the 28 at 12:00 until the 29 at 12:00 UTC


281157Z 2812/2912 17017KT 6SM -SHRA BR SCT006 OVC015
FM281300 19015KT 5SM SHRA SCT006 BKN015 OVC025
FM281800 20010KT 6SM -SHRA SCT025 OVC035
FM290000 21007KT P6SM SCT025 BKN050
FM290900 VRB05KT 5SM BR SCT002



MET'MAP, your aeronautical weather chart ! - Copyright ORBIFLY December 2007 - Disclaimer

ORBIFLY MET'MAP TEAM :

Programming & Development : Alexandra Zaïnal
Concept & original design : Baudouin d'Aumeries
Assistance for programming : Marc-Olivier Méhu
Technical & hardware support : Manuel Goepfert

Contact : metmap@orbifly.com




SOURCES & CREDITS :

   NOAA       Earth
Advisory